sensor_id;sensor_type;location;lat;lon;timestamp;temperature;humidity
39621;DHT22;25309;48.686;9.170;2022-09-29T03:01:11;8.90;99.90
39621;DHT22;25309;48.686;9.170;2022-09-29T03:03:39;8.80;99.90
39621;DHT22;25309;48.686;9.170;2022-09-29T03:06:06;8.80;99.90
39621;DHT22;25309;48.686;9.170;2022-09-29T03:08:34;8.80;99.90
39621;DHT22;25309;48.686;9.170;2022-09-29T03:11:01;8.80;99.90
39621;DHT22;25309;48.686;9.170;2022-09-29T03:13:28;8.80;99.90
39621;DHT22;25309;48.686;9.170;2022-09-29T03:15:55;8.80;99.90
39621;DHT22;25309;48.686;9.170;2022-09-29T03:18:23;8.80;99.90
39621;DHT22;25309;48.686;9.170;2022-09-29T03:20:52;8.80;99.90
39621;DHT22;25309;48.686;9.170;2022-09-29T03:23:19;8.80;99.90
39621;DHT22;25309;48.686;9.170;2022-09-29T03:25:46;8.70;99.90
39621;DHT22;25309;48.686;9.170;2022-09-29T03:28:13;8.70;99.90
39621;DHT22;25309;48.686;9.170;2022-09-29T03:30:42;8.70;99.90
39621;DHT22;25309;48.686;9.170;2022-09-29T03:33:10;8.70;99.90
39621;DHT22;25309;48.686;9.170;2022-09-29T03:35:39;8.70;99.90
39621;DHT22;25309;48.686;9.170;2022-09-29T03:38:10;8.70;99.90
39621;DHT22;25309;48.686;9.170;2022-09-29T03:40:37;8.70;99.90
39621;DHT22;25309;48.686;9.170;2022-09-29T03:43:04;8.70;99.90
39621;DHT22;25309;48.686;9.170;2022-09-29T03:45:31;8.60;99.90
39621;DHT22;25309;48.686;9.170;2022-09-29T03:47:58;8.60;99.90
39621;DHT22;25309;48.686;9.170;2022-09-29T03:50:25;8.60;99.90
39621;DHT22;25309;48.686;9.170;2022-09-29T03:52:53;8.50;99.90
39621;DHT22;25309;48.686;9.170;2022-09-29T03:55:20;8.50;99.90
39621;DHT22;25309;48.686;9.170;2022-09-29T03:57:47;8.50;99.90
39621;DHT22;25309;48.686;9.170;2022-09-29T04:00:14;8.40;99.90
39621;DHT22;25309;48.686;9.170;2022-09-29T04:02:41;8.40;99.90
39621;DHT22;25309;48.686;9.170;2022-09-29T04:05:08;8.40;99.90
39621;DHT22;25309;48.686;9.170;2022-09-29T04:07:35;8.40;99.90
39621;DHT22;25309;48.686;9.170;2022-09-29T04:10:04;8.30;99.90
39621;DHT22;25309;48.686;9.170;2022-09-29T04:12:31;8.30;99.90
39621;DHT22;25309;48.686;9.170;2022-09-29T04:14:58;8.30;99.90
39621;DHT22;25309;48.686;9.170;2022-09-29T04:17:25;8.20;99.90
39621;DHT22;25309;48.686;9.170;2022-09-29T04:19:52;8.20;99.90
39621;DHT22;25309;48.686;9.170;2022-09-29T04:22:19;8.10;99.90
39621;DHT22;25309;48.686;9.170;2022-09-29T04:24:46;8.10;99.90
39621;DHT22;25309;48.686;9.170;2022-09-29T04:27:19;8.00;99.90
39621;DHT22;25309;48.686;9.170;2022-09-29T04:29:46;8.00;99.90
39621;DHT22;25309;48.686;9.170;2022-09-29T04:32:12;8.00;99.90
39621;DHT22;25309;48.686;9.170;2022-09-29T04:34:39;8.00;99.90
39621;DHT22;25309;48.686;9.170;2022-09-29T04:37:07;8.00;99.90
39621;DHT22;25309;48.686;9.170;2022-09-29T04:39:37;8.00;99.90
39621;DHT22;25309;48.686;9.170;2022-09-29T04:42:04;7.90;99.90
39621;DHT22;25309;48.686;9.170;2022-09-29T04:44:32;7.90;99.90
39621;DHT22;25309;48.686;9.170;2022-09-29T04:46:59;7.80;99.90
39621;DHT22;25309;48.686;9.170;2022-09-29T04:49:26;7.70;99.90
39621;DHT22;25309;48.686;9.170;2022-09-29T04:51:53;7.60;99.90
39621;DHT22;25309;48.686;9.170;2022-09-29T04:54:20;7.60;99.90
39621;DHT22;25309;48.686;9.170;2022-09-29T04:56:47;7.60;99.90
39621;DHT22;25309;48.686;9.170;2022-09-29T04:59:14;7.50;99.90
39621;DHT22;25309;48.686;9.170;2022-09-29T05:01:44;7.60;99.90
39621;DHT22;25309;48.686;9.170;2022-09-29T05:04:11;7.60;99.90
39621;DHT22;25309;48.686;9.170;2022-09-29T05:06:39;7.60;99.90
39621;DHT22;25309;48.686;9.170;2022-09-29T05:09:06;7.60;99.90
39621;DHT22;25309;48.686;9.170;2022-09-29T05:11:33;7.60;99.90
39621;DHT22;25309;48.686;9.170;2022-09-29T05:14:01;7.60;99.90
39621;DHT22;25309;48.686;9.170;2022-09-29T05:16:27;7.50;99.90
39621;DHT22;25309;48.686;9.170;2022-09-29T05:18:56;7.50;99.90
39621;DHT22;25309;48.686;9.170;2022-09-29T05:21:23;7.50;99.90
39621;DHT22;25309;48.686;9.170;2022-09-29T05:23:55;7.50;99.90
39621;DHT22;25309;48.686;9.170;2022-09-29T05:26:22;7.50;99.90
39621;DHT22;25309;48.686;9.170;2022-09-29T05:28:49;7.50;99.90
39621;DHT22;25309;48.686;9.170;2022-09-29T05:31:17;7.50;99.90
39621;DHT22;25309;48.686;9.170;2022-09-29T05:33:44;7.60;99.90
39621;DHT22;25309;48.686;9.170;2022-09-29T05:36:13;7.60;99.90
39621;DHT22;25309;48.686;9.170;2022-09-29T05:38:40;7.60;99.90
39621;DHT22;25309;48.686;9.170;2022-09-29T05:41:09;7.60;99.90
39621;DHT22;25309;48.686;9.170;2022-09-29T05:43:37;7.60;99.90
39621;DHT22;25309;48.686;9.170;2022-09-29T05:46:05;7.60;99.90
39621;DHT22;25309;48.686;9.170;2022-09-29T05:48:32;7.70;99.90
39621;DHT22;25309;48.686;9.170;2022-09-29T05:51:06;7.70;99.90
39621;DHT22;25309;48.686;9.170;2022-09-29T05:53:35;7.80;99.90
39621;DHT22;25309;48.686;9.170;2022-09-29T05:56:06;7.80;99.90
39621;DHT22;25309;48.686;9.170;2022-09-29T05:58:35;7.80;99.90
39621;DHT22;25309;48.686;9.170;2022-09-29T06:01:05;7.80;99.90
39621;DHT22;25309;48.686;9.170;2022-09-29T06:03:32;7.80;99.90
39621;DHT22;25309;48.686;9.170;2022-09-29T06:06:06;7.80;99.90
39621;DHT22;25309;48.686;9.170;2022-09-29T06:08:35;7.80;99.90
39621;DHT22;25309;48.686;9.170;2022-09-29T06:11:04;7.80;99.90
39621;DHT22;25309;48.686;9.170;2022-09-29T06:13:31;7.80;99.90
39621;DHT22;25309;48.686;9.170;2022-09-29T06:15:59;7.90;99.90
39621;DHT22;25309;48.686;9.170;2022-09-29T06:18:25;7.90;99.90
39621;DHT22;25309;48.686;9.170;2022-09-29T06:20:53;7.90;99.90
39621;DHT22;25309;48.686;9.170;2022-09-29T06:23:20;8.00;99.90
39621;DHT22;25309;48.686;9.170;2022-09-29T06:25:54;8.00;99.90
39621;DHT22;25309;48.686;9.170;2022-09-29T06:28:22;8.10;99.90
39621;DHT22;25309;48.686;9.170;2022-09-29T06:30:49;8.10;99.90
39621;DHT22;25309;48.686;9.170;2022-09-29T06:33:16;8.10;99.90
39621;DHT22;25309;48.686;9.170;2022-09-29T06:35:45;8.20;99.90
39621;DHT22;25309;48.686;9.170;2022-09-29T06:38:31;8.20;99.90
39621;DHT22;25309;48.686;9.170;2022-09-29T06:40:59;8.30;99.90
39621;DHT22;25309;48.686;9.170;2022-09-29T06:43:27;8.30;99.90
39621;DHT22;25309;48.686;9.170;2022-09-29T06:45:54;8.30;99.90
39621;DHT22;25309;48.686;9.170;2022-09-29T06:48:21;8.30;99.90
39621;DHT22;25309;48.686;9.170;2022-09-29T06:50:48;8.30;99.90
39621;DHT22;25309;48.686;9.170;2022-09-29T06:53:29;8.40;99.90
39621;DHT22;25309;48.686;9.170;2022-09-29T06:56:06;8.40;99.90
39621;DHT22;25309;48.686;9.170;2022-09-29T06:58:34;8.40;99.90
39621;DHT22;25309;48.686;9.170;2022-09-29T07:01:02;8.50;99.90
39621;DHT22;25309;48.686;9.170;2022-09-29T07:03:29;8.60;99.90
39621;DHT22;25309;48.686;9.170;2022-09-29T07:05:56;8.60;99.90
39621;DHT22;25309;48.686;9.170;2022-09-29T07:08:43;8.70;99.90
39621;DHT22;25309;48.686;9.170;2022-09-29T07:11:11;8.80;99.90
39621;DHT22;25309;48.686;9.170;2022-09-29T07:13:38;8.80;99.90
39621;DHT22;25309;48.686;9.170;2022-09-29T07:16:06;8.90;99.90
39621;DHT22;25309;48.686;9.170;2022-09-29T07:18:33;8.90;99.90
39621;DHT22;25309;48.686;9.170;2022-09-29T07:21:01;8.90;99.90
39621;DHT22;25309;48.686;9.170;2022-09-29T07:23:28;8.90;99.90
39621;DHT22;25309;48.686;9.170;2022-09-29T07:25:55;9.00;99.90
39621;DHT22;25309;48.686;9.170;2022-09-29T07:28:23;9.00;99.90
39621;DHT22;25309;48.686;9.170;2022-09-29T07:30:58;9.10;99.90
39621;DHT22;25309;48.686;9.170;2022-09-29T07:33:38;9.20;99.90
39621;DHT22;25309;48.686;9.170;2022-09-29T07:36:05;9.30;99.90
39621;DHT22;25309;48.686;9.170;2022-09-29T07:38:32;9.30;99.90
39621;DHT22;25309;48.686;9.170;2022-09-29T07:40:59;9.40;99.90
39621;DHT22;25309;48.686;9.170;2022-09-29T07:43:29;9.50;99.90
39621;DHT22;25309;48.686;9.170;2022-09-29T07:45:57;9.60;99.90
39621;DHT22;25309;48.686;9.170;2022-09-29T07:48:26;9.60;99.90
39621;DHT22;25309;48.686;9.170;2022-09-29T07:51:01;9.70;99.90
39621;DHT22;25309;48.686;9.170;2022-09-29T07:53:28;9.80;99.90
39621;DHT22;25309;48.686;9.170;2022-09-29T07:56:01;9.80;99.90
39621;DHT22;25309;48.686;9.170;2022-09-29T07:58:30;9.90;99.90
39621;DHT22;25309;48.686;9.170;2022-09-29T08:00:58;10.00;99.90
39621;DHT22;25309;48.686;9.170;2022-09-29T08:03:26;10.00;99.90
39621;DHT22;25309;48.686;9.170;2022-09-29T08:05:53;10.00;99.90
39621;DHT22;25309;48.686;9.170;2022-09-29T08:08:19;10.10;99.90
39621;DHT22;25309;48.686;9.170;2022-09-29T08:10:46;10.10;99.90
39621;DHT22;25309;48.686;9.170;2022-09-29T08:13:20;10.20;99.90
39621;DHT22;25309;48.686;9.170;2022-09-29T08:15:48;10.30;99.90
39621;DHT22;25309;48.686;9.170;2022-09-29T08:18:15;10.30;99.90
39621;DHT22;25309;48.686;9.170;2022-09-29T08:20:42;10.40;99.90
39621;DHT22;25309;48.686;9.170;2022-09-29T08:23:08;10.50;99.90
39621;DHT22;25309;48.686;9.170;2022-09-29T08:25:35;10.60;99.90
39621;DHT22;25309;48.686;9.170;2022-09-29T08:28:02;10.70;99.90
39621;DHT22;25309;48.686;9.170;2022-09-29T08:30:29;10.80;99.90
39621;DHT22;25309;48.686;9.170;2022-09-29T08:32:57;10.90;99.90
39621;DHT22;25309;48.686;9.170;2022-09-29T08:35:25;10.90;99.90
39621;DHT22;25309;48.686;9.170;2022-09-29T08:37:52;11.00;99.90
39621;DHT22;25309;48.686;9.170;2022-09-29T08:40:20;11.10;99.90
39621;DHT22;25309;48.686;9.170;2022-09-29T08:42:55;11.20;99.90
39621;DHT22;25309;48.686;9.170;2022-09-29T08:45:27;11.40;99.90
39621;DHT22;25309;48.686;9.170;2022-09-29T08:48:03;11.80;99.90
39621;DHT22;25309;48.686;9.170;2022-09-29T08:50:47;12.20;99.90
39621;DHT22;25309;48.686;9.170;2022-09-29T08:53:17;12.70;99.90
39621;DHT22;25309;48.686;9.170;2022-09-29T08:55:56;13.10;99.90
39621;DHT22;25309;48.686;9.170;2022-09-29T08:58:24;13.30;99.90
39621;DHT22;25309;48.686;9.170;2022-09-29T09:01:00;13.40;99.90
39621;DHT22;25309;48.686;9.170;2022-09-29T09:03:53;13.50;99.90
39621;DHT22;25309;48.686;9.170;2022-09-29T09:06:26;13.50;99.90
39621;DHT22;25309;48.686;9.170;2022-09-29T09:09:23;13.60;99.90
39621;DHT22;25309;48.686;9.170;2022-09-29T09:12:04;13.70;99.90
39621;DHT22;25309;48.686;9.170;2022-09-29T09:14:51;13.70;99.90
39621;DHT22;25309;48.686;9.170;2022-09-29T09:17:29;13.70;99.90
39621;DHT22;25309;48.686;9.170;2022-09-29T09:20:15;13.70;99.90
39621;DHT22;25309;48.686;9.170;2022-09-29T09:22:51;13.70;99.90
39621;DHT22;25309;48.686;9.170;2022-09-29T09:25:29;13.60;99.90
39621;DHT22;25309;48.686;9.170;2022-09-29T09:28:03;13.50;99.90
39621;DHT22;25309;48.686;9.170;2022-09-29T09:30:36;13.30;99.90
39621;DHT22;25309;48.686;9.170;2022-09-29T09:33:13;13.20;99.90
39621;DHT22;25309;48.686;9.170;2022-09-29T09:36:00;13.10;99.90
39621;DHT22;25309;48.686;9.170;2022-09-29T09:38:40;13.00;99.90
39621;DHT22;25309;48.686;9.170;2022-09-29T09:41:11;13.00;99.90
39621;DHT22;25309;48.686;9.170;2022-09-29T09:43:42;12.90;99.90
39621;DHT22;25309;48.686;9.170;2022-09-29T09:46:15;12.90;99.90
39621;DHT22;25309;48.686;9.170;2022-09-29T09:48:50;12.90;99.90
39621;DHT22;25309;48.686;9.170;2022-09-29T09:51:31;12.80;99.90
39621;DHT22;25309;48.686;9.170;2022-09-29T09:54:03;12.80;99.90
39621;DHT22;25309;48.686;9.170;2022-09-29T09:56:49;12.80;99.90
39621;DHT22;25309;48.686;9.170;2022-09-29T09:59:32;12.80;99.90
39621;DHT22;25309;48.686;9.170;2022-09-29T10:02:02;12.90;99.90
39621;DHT22;25309;48.686;9.170;2022-09-29T10:04:29;13.10;99.90
39621;DHT22;25309;48.686;9.170;2022-09-29T10:06:58;13.20;99.90
39621;DHT22;25309;48.686;9.170;2022-09-29T10:09:25;13.40;99.90
39621;DHT22;25309;48.686;9.170;2022-09-29T10:11:52;13.50;99.90
39621;DHT22;25309;48.686;9.170;2022-09-29T10:14:22;13.50;99.90
39621;DHT22;25309;48.686;9.170;2022-09-29T10:16:55;13.60;99.90
39621;DHT22;25309;48.686;9.170;2022-09-29T10:19:56;13.70;99.90
39621;DHT22;25309;48.686;9.170;2022-09-29T10:22:27;13.80;99.90
39621;DHT22;25309;48.686;9.170;2022-09-29T10:25:05;14.00;99.90
39621;DHT22;25309;48.686;9.170;2022-09-29T10:27:34;14.10;99.90
39621;DHT22;25309;48.686;9.170;2022-09-29T10:30:16;14.10;99.90
39621;DHT22;25309;48.686;9.170;2022-09-29T10:32:44;14.10;99.90
39621;DHT22;25309;48.686;9.170;2022-09-29T10:35:16;14.00;99.90
39621;DHT22;25309;48.686;9.170;2022-09-29T10:37:49;14.00;99.90
39621;DHT22;25309;48.686;9.170;2022-09-29T10:40:23;13.90;99.90
39621;DHT22;25309;48.686;9.170;2022-09-29T10:42:50;14.00;99.90
39621;DHT22;25309;48.686;9.170;2022-09-29T10:45:20;14.00;99.90
39621;DHT22;25309;48.686;9.170;2022-09-29T10:48:06;14.10;99.90
39621;DHT22;25309;48.686;9.170;2022-09-29T10:50:34;14.20;99.90
39621;DHT22;25309;48.686;9.170;2022-09-29T10:53:21;14.30;99.90
39621;DHT22;25309;48.686;9.170;2022-09-29T10:55:52;14.30;99.90
39621;DHT22;25309;48.686;9.170;2022-09-29T10:58:25;14.40;99.90
39621;DHT22;25309;48.686;9.170;2022-09-29T11:01:13;14.40;99.90
39621;DHT22;25309;48.686;9.170;2022-09-29T11:03:46;14.40;99.90
39621;DHT22;25309;48.686;9.170;2022-09-29T11:06:16;14.50;99.90
39621;DHT22;25309;48.686;9.170;2022-09-29T11:08:56;14.50;99.90
39621;DHT22;25309;48.686;9.170;2022-09-29T11:11:29;14.80;99.90
39621;DHT22;25309;48.686;9.170;2022-09-29T11:13:57;15.00;99.90
39621;DHT22;25309;48.686;9.170;2022-09-29T11:16:30;15.20;99.90
39621;DHT22;25309;48.686;9.170;2022-09-29T11:19:03;15.40;99.90
39621;DHT22;25309;48.686;9.170;2022-09-29T11:24:59;15.60;99.90
39621;DHT22;25309;48.686;9.170;2022-09-29T11:27:39;15.70;99.90
39621;DHT22;25309;48.686;9.170;2022-09-29T11:30:09;15.70;99.90
39621;DHT22;25309;48.686;9.170;2022-09-29T11:32:52;15.60;99.90
39621;DHT22;25309;48.686;9.170;2022-09-29T11:35:36;15.50;99.90
39621;DHT22;25309;48.686;9.170;2022-09-29T11:38:24;15.50;99.90
39621;DHT22;25309;48.686;9.170;2022-09-29T11:41:04;15.60;99.90
39621;DHT22;25309;48.686;9.170;2022-09-29T11:43:43;15.70;99.90
39621;DHT22;25309;48.686;9.170;2022-09-29T11:46:28;15.90;99.90
39621;DHT22;25309;48.686;9.170;2022-09-29T11:52:20;16.10;99.90
39621;DHT22;25309;48.686;9.170;2022-09-29T11:55:18;16.20;99.90
39621;DHT22;25309;48.686;9.170;2022-09-29T11:57:57;16.30;99.90
39621;DHT22;25309;48.686;9.170;2022-09-29T12:00:38;16.50;99.90
39621;DHT22;25309;48.686;9.170;2022-09-29T12:03:22;16.60;99.90
39621;DHT22;25309;48.686;9.170;2022-09-29T12:06:29;16.80;99.90
39621;DHT22;25309;48.686;9.170;2022-09-29T12:09:09;17.00;99.90
39621;DHT22;25309;48.686;9.170;2022-09-29T12:11:44;17.10;99.90
39621;DHT22;25309;48.686;9.170;2022-09-29T12:14:56;17.00;99.90
39621;DHT22;25309;48.686;9.170;2022-09-29T12:17:26;17.00;99.90
39621;DHT22;25309;48.686;9.170;2022-09-29T12:20:00;17.00;99.90
39621;DHT22;25309;48.686;9.170;2022-09-29T12:22:28;17.00;99.90
39621;DHT22;25309;48.686;9.170;2022-09-29T12:25:02;17.00;99.90
39621;DHT22;25309;48.686;9.170;2022-09-29T12:27:34;17.00;99.90
39621;DHT22;25309;48.686;9.170;2022-09-29T12:30:05;17.00;99.90
39621;DHT22;25309;48.686;9.170;2022-09-29T12:32:42;17.10;99.90
39621;DHT22;25309;48.686;9.170;2022-09-29T12:35:13;17.20;99.90
39621;DHT22;25309;48.686;9.170;2022-09-29T12:37:45;17.10;99.90
39621;DHT22;25309;48.686;9.170;2022-09-29T12:40:19;17.20;99.90
39621;DHT22;25309;48.686;9.170;2022-09-29T12:42:58;17.20;99.90
39621;DHT22;25309;48.686;9.170;2022-09-29T12:45:34;17.20;99.90
39621;DHT22;25309;48.686;9.170;2022-09-29T12:48:18;17.00;99.90
39621;DHT22;25309;48.686;9.170;2022-09-29T12:50:53;17.00;99.90
39621;DHT22;25309;48.686;9.170;2022-09-29T12:53:28;17.10;99.90
39621;DHT22;25309;48.686;9.170;2022-09-29T12:56:00;17.10;99.90
39621;DHT22;25309;48.686;9.170;2022-09-29T12:58:34;17.10;99.90
39621;DHT22;25309;48.686;9.170;2022-09-29T13:01:18;17.00;99.90
39621;DHT22;25309;48.686;9.170;2022-09-29T13:10:08;16.60;99.90
39621;DHT22;25309;48.686;9.170;2022-09-29T13:13:09;16.50;99.90
39621;DHT22;25309;48.686;9.170;2022-09-29T13:15:47;16.50;99.90
39621;DHT22;25309;48.686;9.170;2022-09-29T13:18:41;16.50;99.90
39621;DHT22;25309;48.686;9.170;2022-09-29T13:21:29;16.60;99.90
39621;DHT22;25309;48.686;9.170;2022-09-29T13:27:20;16.60;99.90
39621;DHT22;25309;48.686;9.170;2022-09-29T13:29:55;16.70;99.90
39621;DHT22;25309;48.686;9.170;2022-09-29T13:32:23;16.70;99.90
39621;DHT22;25309;48.686;9.170;2022-09-29T13:34:54;16.60;99.90
39621;DHT22;25309;48.686;9.170;2022-09-29T13:37:24;16.60;99.90
39621;DHT22;25309;48.686;9.170;2022-09-29T13:39:55;16.60;99.90
39621;DHT22;25309;48.686;9.170;2022-09-29T13:42:41;16.60;99.90
39621;DHT22;25309;48.686;9.170;2022-09-29T13:45:39;16.50;99.90
39621;DHT22;25309;48.686;9.170;2022-09-29T13:51:50;16.60;99.90
39621;DHT22;25309;48.686;9.170;2022-09-29T13:54:29;16.70;99.90
39621;DHT22;25309;48.686;9.170;2022-09-29T13:57:26;16.70;99.90
39621;DHT22;25309;48.686;9.170;2022-09-29T14:00:21;16.70;99.90
39621;DHT22;25309;48.686;9.170;2022-09-29T14:03:20;16.60;99.90
39621;DHT22;25309;48.686;9.170;2022-09-29T14:06:03;16.60;99.90
39621;DHT22;25309;48.686;9.170;2022-09-29T14:08:58;16.60;99.90
39621;DHT22;25309;48.686;9.170;2022-09-29T14:11:29;16.60;99.90
39621;DHT22;25309;48.686;9.170;2022-09-29T14:14:00;16.60;99.90
39621;DHT22;25309;48.686;9.170;2022-09-29T14:16:36;16.70;99.90
39621;DHT22;25309;48.686;9.170;2022-09-29T14:19:07;16.80;99.90
39621;DHT22;25309;48.686;9.170;2022-09-29T14:22:00;16.80;99.90
39621;DHT22;25309;48.686;9.170;2022-09-29T14:24:43;16.90;99.90
39621;DHT22;25309;48.686;9.170;2022-09-29T14:27:31;16.80;99.20
39621;DHT22;25309;48.686;9.170;2022-09-29T14:30:16;16.70;99.10
39621;DHT22;25309;48.686;9.170;2022-09-29T14:32:50;16.50;99.90
39621;DHT22;25309;48.686;9.170;2022-09-29T14:35:24;16.50;99.90
39621;DHT22;25309;48.686;9.170;2022-09-29T14:37:59;16.40;99.90
39621;DHT22;25309;48.686;9.170;2022-09-29T14:40:29;16.30;99.90
39621;DHT22;25309;48.686;9.170;2022-09-29T14:43:13;16.30;99.90
39621;DHT22;25309;48.686;9.170;2022-09-29T14:46:03;16.20;99.90
39621;DHT22;25309;48.686;9.170;2022-09-29T14:49:02;16.10;99.90
39621;DHT22;25309;48.686;9.170;2022-09-29T14:51:58;16.10;99.90
39621;DHT22;25309;48.686;9.170;2022-09-29T14:54:38;16.10;99.90
39621;DHT22;25309;48.686;9.170;2022-09-29T14:57:24;16.00;99.90
39621;DHT22;25309;48.686;9.170;2022-09-29T15:00:05;16.00;99.90
39621;DHT22;25309;48.686;9.170;2022-09-29T15:02:34;16.00;99.90
39621;DHT22;25309;48.686;9.170;2022-09-29T15:05:14;16.00;99.90
39621;DHT22;25309;48.686;9.170;2022-09-29T15:07:42;15.90;99.90
39621;DHT22;25309;48.686;9.170;2022-09-29T15:10:23;15.90;99.90
39621;DHT22;25309;48.686;9.170;2022-09-29T15:12:52;15.80;99.90
39621;DHT22;25309;48.686;9.170;2022-09-29T15:15:40;15.80;99.90
39621;DHT22;25309;48.686;9.170;2022-09-29T15:18:22;15.70;99.90
39621;DHT22;25309;48.686;9.170;2022-09-29T15:20:58;15.70;99.90
39621;DHT22;25309;48.686;9.170;2022-09-29T15:23:54;15.60;99.90
39621;DHT22;25309;48.686;9.170;2022-09-29T15:26:27;15.50;99.90
39621;DHT22;25309;48.686;9.170;2022-09-29T15:28:58;15.50;99.90
39621;DHT22;25309;48.686;9.170;2022-09-29T15:31:27;15.50;99.90
39621;DHT22;25309;48.686;9.170;2022-09-29T15:33:56;15.40;99.90
39621;DHT22;25309;48.686;9.170;2022-09-29T15:36:24;15.40;99.90
39621;DHT22;25309;48.686;9.170;2022-09-29T15:38:53;15.40;99.90
39621;DHT22;25309;48.686;9.170;2022-09-29T15:41:21;15.40;99.90
39621;DHT22;25309;48.686;9.170;2022-09-29T15:43:58;15.30;99.90
39621;DHT22;25309;48.686;9.170;2022-09-29T15:46:34;15.20;99.90
39621;DHT22;25309;48.686;9.170;2022-09-29T15:49:19;15.20;99.90
39621;DHT22;25309;48.686;9.170;2022-09-29T15:51:55;15.20;99.90
39621;DHT22;25309;48.686;9.170;2022-09-29T15:54:24;15.20;99.90
39621;DHT22;25309;48.686;9.170;2022-09-29T15:56:51;15.20;99.90
39621;DHT22;25309;48.686;9.170;2022-09-29T15:59:40;15.10;99.90
39621;DHT22;25309;48.686;9.170;2022-09-29T16:02:22;15.10;99.90
39621;DHT22;25309;48.686;9.170;2022-09-29T16:04:53;15.00;99.90
39621;DHT22;25309;48.686;9.170;2022-09-29T16:07:24;15.00;99.90
39621;DHT22;25309;48.686;9.170;2022-09-29T16:09:58;15.00;99.90
39621;DHT22;25309;48.686;9.170;2022-09-29T16:12:29;14.90;99.90
39621;DHT22;25309;48.686;9.170;2022-09-29T16:14:58;14.90;99.90
39621;DHT22;25309;48.686;9.170;2022-09-29T16:17:25;14.80;99.90
39621;DHT22;25309;48.686;9.170;2022-09-29T16:19:52;14.80;99.90
39621;DHT22;25309;48.686;9.170;2022-09-29T16:22:23;14.70;99.90
39621;DHT22;25309;48.686;9.170;2022-09-29T16:24:54;14.70;99.90
39621;DHT22;25309;48.686;9.170;2022-09-29T16:27:43;14.70;99.90
39621;DHT22;25309;48.686;9.170;2022-09-29T16:30:19;14.60;99.90
39621;DHT22;25309;48.686;9.170;2022-09-29T16:32:52;14.60;99.90
39621;DHT22;25309;48.686;9.170;2022-09-29T16:35:37;14.50;99.90
39621;DHT22;25309;48.686;9.170;2022-09-29T16:38:19;14.50;99.90
39621;DHT22;25309;48.686;9.170;2022-09-29T16:40:49;14.40;99.90
39621;DHT22;25309;48.686;9.170;2022-09-29T16:43:20;14.40;99.90
39621;DHT22;25309;48.686;9.170;2022-09-29T16:45:52;14.30;99.90
39621;DHT22;25309;48.686;9.170;2022-09-29T16:48:22;14.30;99.90
39621;DHT22;25309;48.686;9.170;2022-09-29T16:50:54;14.20;99.90
39621;DHT22;25309;48.686;9.170;2022-09-29T16:53:25;14.20;99.90
39621;DHT22;25309;48.686;9.170;2022-09-29T16:55:57;14.10;99.90
39621;DHT22;25309;48.686;9.170;2022-09-29T16:58:26;14.00;99.90
39621;DHT22;25309;48.686;9.170;2022-09-29T17:00:54;14.00;99.90
39621;DHT22;25309;48.686;9.170;2022-09-29T17:03:21;14.00;99.90
39621;DHT22;25309;48.686;9.170;2022-09-29T17:05:48;13.90;99.90
39621;DHT22;25309;48.686;9.170;2022-09-29T17:08:19;13.90;99.90
39621;DHT22;25309;48.686;9.170;2022-09-29T17:10:48;13.80;99.90
39621;DHT22;25309;48.686;9.170;2022-09-29T17:13:16;13.70;99.90
39621;DHT22;25309;48.686;9.170;2022-09-29T17:15:45;13.70;99.90
39621;DHT22;25309;48.686;9.170;2022-09-29T17:18:16;13.70;99.90
39621;DHT22;25309;48.686;9.170;2022-09-29T17:20:43;13.60;99.90
39621;DHT22;25309;48.686;9.170;2022-09-29T17:23:10;13.50;99.90
39621;DHT22;25309;48.686;9.170;2022-09-29T17:25:39;13.50;99.90
39621;DHT22;25309;48.686;9.170;2022-09-29T17:28:12;13.40;99.90
39621;DHT22;25309;48.686;9.170;2022-09-29T17:30:42;13.40;99.90
39621;DHT22;25309;48.686;9.170;2022-09-29T17:33:11;13.30;99.90
39621;DHT22;25309;48.686;9.170;2022-09-29T17:35:42;13.20;99.90
39621;DHT22;25309;48.686;9.170;2022-09-29T17:38:10;13.20;99.90
39621;DHT22;25309;48.686;9.170;2022-09-29T17:40:48;13.10;99.90
39621;DHT22;25309;48.686;9.170;2022-09-29T17:43:16;13.10;99.90
39621;DHT22;25309;48.686;9.170;2022-09-29T17:45:47;13.00;99.90
39621;DHT22;25309;48.686;9.170;2022-09-29T17:48:15;13.00;99.90
39621;DHT22;25309;48.686;9.170;2022-09-29T17:50:47;12.90;99.90
39621;DHT22;25309;48.686;9.170;2022-09-29T17:53:15;12.90;99.90
39621;DHT22;25309;48.686;9.170;2022-09-29T17:55:44;12.90;99.90
39621;DHT22;25309;48.686;9.170;2022-09-29T17:58:13;12.90;99.90
39621;DHT22;25309;48.686;9.170;2022-09-29T18:00:44;12.80;99.90
39621;DHT22;25309;48.686;9.170;2022-09-29T18:03:12;12.80;99.90
39621;DHT22;25309;48.686;9.170;2022-09-29T18:05:42;12.70;99.90
39621;DHT22;25309;48.686;9.170;2022-09-29T18:08:12;12.70;99.90
39621;DHT22;25309;48.686;9.170;2022-09-29T18:10:42;12.70;99.90
39621;DHT22;25309;48.686;9.170;2022-09-29T18:13:09;12.70;99.90
39621;DHT22;25309;48.686;9.170;2022-09-29T18:15:37;12.70;99.90
39621;DHT22;25309;48.686;9.170;2022-09-29T18:18:06;12.70;99.90
39621;DHT22;25309;48.686;9.170;2022-09-29T18:20:34;12.60;99.90
39621;DHT22;25309;48.686;9.170;2022-09-29T18:23:01;12.60;99.90
39621;DHT22;25309;48.686;9.170;2022-09-29T18:25:31;12.60;99.90
39621;DHT22;25309;48.686;9.170;2022-09-29T18:27:59;12.60;99.90
39621;DHT22;25309;48.686;9.170;2022-09-29T18:30:29;12.50;99.90
39621;DHT22;25309;48.686;9.170;2022-09-29T18:32:58;12.50;99.90
39621;DHT22;25309;48.686;9.170;2022-09-29T18:35:27;12.40;99.90
39621;DHT22;25309;48.686;9.170;2022-09-29T18:37:55;12.40;99.90
39621;DHT22;25309;48.686;9.170;2022-09-29T18:40:24;12.40;99.90
39621;DHT22;25309;48.686;9.170;2022-09-29T18:42:53;12.30;99.90
39621;DHT22;25309;48.686;9.170;2022-09-29T18:45:25;12.30;99.90
39621;DHT22;25309;48.686;9.170;2022-09-29T18:47:54;12.30;99.90
39621;DHT22;25309;48.686;9.170;2022-09-29T18:50:25;12.30;99.90
39621;DHT22;25309;48.686;9.170;2022-09-29T18:52:53;12.20;99.90
39621;DHT22;25309;48.686;9.170;2022-09-29T18:55:22;12.20;99.90
39621;DHT22;25309;48.686;9.170;2022-09-29T18:57:50;12.20;99.90
39621;DHT22;25309;48.686;9.170;2022-09-29T19:00:20;12.20;99.90
39621;DHT22;25309;48.686;9.170;2022-09-29T19:02:48;12.20;99.90
39621;DHT22;25309;48.686;9.170;2022-09-29T19:05:17;12.20;99.90
39621;DHT22;25309;48.686;9.170;2022-09-29T19:07:48;12.20;99.90
39621;DHT22;25309;48.686;9.170;2022-09-29T19:10:16;12.20;99.90
39621;DHT22;25309;48.686;9.170;2022-09-29T19:12:43;12.10;99.90
39621;DHT22;25309;48.686;9.170;2022-09-29T19:15:16;12.10;99.90
39621;DHT22;25309;48.686;9.170;2022-09-29T19:17:46;12.10;99.90
39621;DHT22;25309;48.686;9.170;2022-09-29T19:20:15;12.10;99.90
39621;DHT22;25309;48.686;9.170;2022-09-29T19:22:43;12.10;99.90
39621;DHT22;25309;48.686;9.170;2022-09-29T19:25:14;12.10;99.90
39621;DHT22;25309;48.686;9.170;2022-09-29T19:27:43;12.10;99.90
39621;DHT22;25309;48.686;9.170;2022-09-29T19:30:11;12.10;99.90